METAR AND TAF INFORMATION
METAR FOR LBSF
ADDS - METARS form results

(2043 UTC 03 August 2021)
Data provider http://aviationweather.gov/metar/data/
 
METAR text: LBSF 032030Z 11004KT CAVOK 22/14 Q1016 NOSIG
Conditions at: LBSF (SOFIA , BG) observed 2030 UTC 03 August 2021
Temperature: 22.0°C (72°F)
Dewpoint: 14.0°C (57°F) [RH = 60%]
Pressure (altimeter): 30.00 inches Hg (1016.0 mb)
Winds: from the ESE (110 degrees) at 5 MPH (4 knots; 2.1 m/s)
Visibility: 6 or more miles (10+ km)
Ceiling: ceiling and visibility are OK
Clouds: unknown
Weather: no significant weather observed at this time

METAR text: LBSF 032000Z 11008KT CAVOK 22/13 Q1016 NOSIG
Conditions at: LBSF (SOFIA , BG) observed 2000 UTC 03 August 2021
Temperature: 22.0°C (72°F)
Dewpoint: 13.0°C (55°F) [RH = 57%]
Pressure (altimeter): 30.00 inches Hg (1016.0 mb)
Winds: from the ESE (110 degrees) at 9 MPH (8 knots; 4.1 m/s)
Visibility: 6 or more miles (10+ km)
Ceiling: ceiling and visibility are OK
Clouds: unknown
Weather: no significant weather observed at this time

Forecast for: LBSF (SOFIA , BG)
Text: TAF LBSF 031700Z 0318/0418 31010KT CAVOK
Forecast period: 1800 UTC 03 August 2021 to 1800 UTC 04 August 2021
Forecast type: FROM: standard forecast or significant change
Winds: from the NW (310 degrees) at 12 MPH (10 knots; 5.1 m/s)
Visibility: 6 or more miles (10+ km)
Ceiling: unknown
Clouds: missing
Weather: NSW  (no significant weather)
Text: BECMG 0318/0320 VRB04KT
Forecast period: 1800 UTC 03 August 2021 to 0900 UTC 04 August 2021
Forecast type: BECOMING: Conditions expected to become as follows by 2000 UTC 03 August 2021
Winds: variable direction winds at 5 MPH (4 knots; 2.1 m/s)
Visibility: 6 or more miles (10+ km)
Ceiling: unknown
Clouds: missing
Weather: NSW  (no significant weather)
Text: BECMG 0409/0411 33010KT
Forecast period: 0900 to 1800 UTC 04 August 2021
Forecast type: BECOMING: Conditions expected to become as follows by 1100 UTC 04 August 2021
Winds: from the NNW (330 degrees) at 12 MPH (10 knots; 5.1 m/s)
Visibility: 6 or more miles (10+ km)
Ceiling: unknown
Clouds: missing
Weather: NSW  (no significant weather)

 AIRPORT MAP

 RUNWAY INFORMATION
Runway 09 Runway length 9186 ft Runway width 147 ft
Runway elevation 1739 ft Runway displaced threshold 0 ft Runway heading 95
Runway 27 Runway length 9186 ft Runway width 147 ft
Runway elevation 1742 ft Runway displaced threshold 0 ft Runway heading 275

 AIRPORT FREQUENCIES
Type APP Name APP Frequency 123.7 MHZ
Type ATIS Name ATIS Frequency 124.05 MHZ
Type TWR Name TWR Frequency 118.1 MHZ

 AIRPORT NEAR NAVIGATION AIDS
Type NDB Name Bozhourishte Frequency 312 KHZ
Type NDB Name Sofia Frequency 375 KHZ
Type NDB Name Sofia Frequency 335 KHZ
Type NDB Name Sofia Frequency 529 KHZ
Type VOR-DME Name Sofia Frequency 112600 KHZ
Type NDB Name Sofia Frequency 350 KHZ





Powered by Virtual Airlines Manager

Maps by Rafael Santos